Time;durP1;ratioP1;P1;durP2;ratioP2;P2;SDS_P1;SDS_P2;PMS_P1;PMS_P2;Temp;Humidity;BMP_temperature;BMP_pressure;BME280_temperature;BME280_humidity;BME280_pressure;Samples;Min_cycle;Max_cycle;Signal;HPM_P1;HPM_P2
2022/01/05 00:00:39;;;;;;;3.27;1.30;;;3.60;99.90;;;;;;5075479;28;20489;-78
2022/01/05 00:03:06;;;;;;;4.00;1.33;;;3.50;99.90;;;;;;5074818;28;20040;-77
2022/01/05 00:05:33;;;;;;;6.27;1.63;;;3.50;99.90;;;;;;5074084;28;20041;-77
2022/01/05 00:08:00;;;;;;;2.03;1.40;;;3.50;99.90;;;;;;5074997;28;20090;-77
2022/01/05 00:10:26;;;;;;;2.80;1.37;;;3.40;99.90;;;;;;5073987;28;20102;-78
2022/01/05 00:12:54;;;;;;;2.17;1.50;;;3.40;99.90;;;;;;5073893;28;20052;-76
2022/01/05 00:15:21;;;;;;;1.57;1.47;;;3.40;99.90;;;;;;5072777;28;20052;-77
2022/01/05 00:17:48;;;;;;;4.97;1.10;;;3.40;99.90;;;;;;5073267;28;20044;-77
2022/01/05 00:20:14;;;;;;;1.93;1.60;;;3.30;99.90;;;;;;5072910;28;20052;-77
2022/01/05 00:22:41;;;;;;;1.97;1.20;;;3.30;99.90;;;;;;5073028;28;20499;-76
2022/01/05 00:25:08;;;;;;;2.63;1.80;;;3.30;99.90;;;;;;5071988;28;20101;-76
2022/01/05 00:27:35;;;;;;;2.40;1.57;;;3.30;99.90;;;;;;5072541;28;20330;-77
2022/01/05 00:30:03;;;;;;;1.20;0.90;;;3.20;99.90;;;;;;5072698;28;20091;-77
2022/01/05 00:32:30;;;;;;;1.37;1.27;;;3.20;99.90;;;;;;5072484;28;20048;-76
2022/01/05 00:34:56;;;;;;;5.33;1.53;;;3.10;99.90;;;;;;5072882;28;20067;-77
2022/01/05 00:37:24;;;;;;;1.47;0.97;;;3.10;99.90;;;;;;5072076;28;20488;-76
2022/01/05 00:39:51;;;;;;;2.57;1.47;;;3.10;99.90;;;;;;5072106;28;20095;-77
2022/01/05 00:42:18;;;;;;;3.40;1.80;;;3.00;99.90;;;;;;5073053;28;20045;-77
2022/01/05 00:44:44;;;;;;;4.47;1.60;;;3.00;99.90;;;;;;5071786;28;20085;-76
2022/01/05 00:47:12;;;;;;;4.83;1.80;;;3.00;99.90;;;;;;5072278;28;20052;-77
2022/01/05 00:49:39;;;;;;;2.37;1.27;;;3.10;99.90;;;;;;5072064;28;20059;-77
2022/01/05 00:52:06;;;;;;;3.70;1.87;;;3.00;99.90;;;;;;5072328;28;20098;-76
2022/01/05 00:54:33;;;;;;;3.10;1.73;;;3.00;99.90;;;;;;5071960;28;20052;-76
2022/01/05 00:56:59;;;;;;;2.93;1.83;;;2.90;99.90;;;;;;5072311;28;20049;-77
2022/01/05 00:59:26;;;;;;;2.43;1.80;;;3.00;99.90;;;;;;5072477;28;20083;-77
2022/01/05 01:01:53;;;;;;;1.70;1.60;;;3.00;99.90;;;;;;5072979;28;20057;-77
2022/01/05 01:04:21;;;;;;;2.23;1.70;;;3.00;99.90;;;;;;5072891;28;20056;-77
2022/01/05 01:06:47;;;;;;;2.40;1.50;;;3.00;99.90;;;;;;5071878;28;20044;-77
2022/01/05 01:09:14;;;;;;;15.07;2.40;;;3.00;99.90;;;;;;5072667;28;20048;-76
2022/01/05 01:11:41;;;;;;;4.33;1.90;;;2.90;99.90;;;;;;5074039;28;20098;-78
2022/01/05 01:14:08;;;;;;;4.17;2.03;;;2.90;99.90;;;;;;5072526;28;20070;-78
2022/01/05 01:16:35;;;;;;;3.80;2.17;;;2.80;99.90;;;;;;5072435;28;20044;-77
2022/01/05 01:19:01;;;;;;;2.57;1.47;;;2.80;99.90;;;;;;5071993;28;20044;-77
2022/01/05 01:21:29;;;;;;;7.40;2.40;;;2.80;99.90;;;;;;5072003;28;20491;-77
2022/01/05 01:23:56;;;;;;;4.93;1.80;;;2.80;99.90;;;;;;5072672;28;20045;-78
2022/01/05 01:26:27;;;;;;;3.50;2.27;;;2.80;99.90;;;;;;5072773;28;20095;-77
2022/01/05 01:28:54;;;;;;;3.83;2.08;;;2.80;99.90;;;;;;5073272;28;20048;-77
2022/01/05 01:31:21;;;;;;;4.13;1.43;;;2.80;99.90;;;;;;5071836;28;20109;-77
2022/01/05 01:33:48;;;;;;;4.50;2.43;;;2.80;99.90;;;;;;5071969;28;20485;-76
2022/01/05 01:36:15;;;;;;;4.00;1.43;;;2.90;99.90;;;;;;5070968;28;20070;-76
2022/01/05 01:38:43;;;;;;;4.37;1.87;;;2.80;99.90;;;;;;5071805;28;20101;-76
2022/01/05 01:41:10;;;;;;;3.23;2.03;;;2.90;99.90;;;;;;5073191;28;20052;-77
2022/01/05 01:43:37;;;;;;;6.10;2.43;;;3.00;99.90;;;;;;5075910;28;20418;-78
2022/01/05 01:46:04;;;;;;;2.50;2.00;;;2.90;99.90;;;;;;5075459;28;20456;-77
2022/01/05 01:48:32;;;;;;;28.73;15.57;;;2.90;99.90;;;;;;5075467;28;20110;-77
2022/01/05 01:50:58;;;;;;;2.47;2.20;;;3.00;99.90;;;;;;5075930;28;20485;-77
2022/01/05 01:53:25;;;;;;;2.50;1.37;;;3.10;99.90;;;;;;5076266;28;20044;-76
2022/01/05 01:55:54;;;;;;;3.67;1.50;;;3.10;99.90;;;;;;5075384;28;20044;-78
2022/01/05 01:58:25;;;;;;;5.40;2.40;;;3.00;99.90;;;;;;5075634;28;20044;-77
2022/01/05 02:00:55;;;;;;;2.80;2.57;;;3.10;99.90;;;;;;5075383;28;20389;-77
2022/01/05 02:03:22;;;;;;;1.53;1.00;;;3.20;99.90;;;;;;5075836;28;20459;-77
2022/01/05 02:05:48;;;;;;;2.67;1.80;;;3.20;99.90;;;;;;5074732;28;20635;-77
2022/01/05 02:08:15;;;;;;;2.53;2.27;;;3.20;99.90;;;;;;5075443;28;20455;-78
2022/01/05 02:10:43;;;;;;;5.60;1.80;;;3.30;99.90;;;;;;5075715;28;20416;-77
2022/01/05 02:13:11;;;;;;;4.30;1.37;;;3.20;99.90;;;;;;5075584;28;20052;-77
2022/01/05 02:15:40;;;;;;;2.87;1.10;;;3.30;99.90;;;;;;5074592;28;20074;-77
2022/01/05 02:18:57;;;;;;;1.77;1.20;;;3.30;99.90;;;;;;5075000;28;20416;-77
2022/01/05 02:21:01;;;;;;;1.97;1.37;;;3.30;99.90;;;;;;5075127;28;20041;-76
2022/01/05 02:23:28;;;;;;;3.80;1.92;;;3.40;99.90;;;;;;5075356;28;20052;-76
2022/01/05 02:25:55;;;;;;;11.23;2.03;;;3.40;99.90;;;;;;5074635;28;20098;-76
2022/01/05 02:28:21;;;;;;;1.77;1.67;;;3.40;99.90;;;;;;5075021;28;20122;-77
2022/01/05 02:30:51;;;;;;;2.67;1.20;;;3.40;99.90;;;;;;5075140;28;20408;-76
2022/01/05 02:33:17;;;;;;;5.33;1.47;;;3.40;99.90;;;;;;5074864;28;20094;-76
2022/01/05 02:35:44;;;;;;;3.57;1.20;;;3.50;99.90;;;;;;5074605;28;20497;-77
2022/01/05 02:38:12;;;;;;;3.43;1.77;;;3.40;99.90;;;;;;5074427;28;20060;-76
2022/01/05 02:40:39;;;;;;;3.23;1.40;;;3.50;99.90;;;;;;5074807;28;20129;-77
2022/01/05 02:43:05;;;;;;;2.07;1.00;;;3.50;99.90;;;;;;5074785;28;20539;-77
2022/01/05 02:45:32;;;;;;;2.27;1.03;;;3.40;99.90;;;;;;5073058;28;20504;-77
2022/01/05 02:47:59;;;;;;;2.53;1.43;;;3.50;99.90;;;;;;5074762;28;20040;-78
2022/01/05 02:50:26;;;;;;;1.10;1.00;;;3.50;99.90;;;;;;5075171;28;20047;-77
2022/01/05 02:52:53;;;;;;;5.23;1.83;;;3.50;99.90;;;;;;5073530;28;20102;-75
2022/01/05 02:55:21;;;;;;;3.97;1.00;;;3.50;99.90;;;;;;5074373;28;20493;-77
2022/01/05 02:57:47;;;;;;;1.13;0.97;;;3.60;99.90;;;;;;5074663;28;20484;-78
2022/01/05 03:00:16;;;;;;;1.80;1.17;;;3.60;99.90;;;;;;5074988;28;20040;-77
2022/01/05 03:02:43;;;;;;;1.20;0.90;;;3.60;99.90;;;;;;5075473;28;20123;-77
2022/01/05 03:05:10;;;;;;;2.73;1.57;;;3.60;99.90;;;;;;5074424;28;20044;-77
2022/01/05 03:07:39;;;;;;;2.00;1.47;;;3.60;99.90;;;;;;5075015;28;20045;-76
2022/01/05 03:10:07;;;;;;;4.50;1.50;;;3.60;99.90;;;;;;5075312;28;20050;-77
2022/01/05 03:12:36;;;;;;;2.77;0.90;;;3.60;99.90;;;;;;5074384;28;20562;-76
2022/01/05 03:15:07;;;;;;;2.47;1.50;;;3.60;99.90;;;;;;5074154;28;20044;-76
2022/01/05 03:17:34;;;;;;;4.68;1.88;;;3.60;99.90;;;;;;5074964;28;20044;-77
2022/01/05 03:20:01;;;;;;;3.03;0.97;;;3.70;99.90;;;;;;5074270;28;20071;-77
2022/01/05 03:22:29;;;;;;;2.57;1.07;;;3.70;99.90;;;;;;5073771;28;20048;-77
2022/01/05 03:24:56;;;;;;;1.40;0.57;;;3.70;99.90;;;;;;5073565;28;20087;-77
2022/01/05 03:27:23;;;;;;;1.33;0.70;;;3.60;99.90;;;;;;5075028;28;20049;-77
2022/01/05 03:29:51;;;;;;;2.20;0.77;;;3.70;99.90;;;;;;5075135;28;20102;-77
2022/01/05 03:32:17;;;;;;;1.90;0.70;;;3.70;99.90;;;;;;5075578;28;20041;-77
2022/01/05 03:34:50;;;;;;;1.50;0.73;;;3.70;99.90;;;;;;5075007;28;20052;-77
2022/01/05 03:37:16;;;;;;;3.50;0.67;;;3.70;99.90;;;;;;5083824;28;20045;-76
2022/01/05 03:39:43;;;;;;;2.37;1.03;;;3.70;99.90;;;;;;5085730;28;20049;-76
2022/01/05 03:42:10;;;;;;;0.80;0.27;;;3.60;99.90;;;;;;5085946;28;20052;-76
2022/01/05 03:44:37;;;;;;;1.00;0.90;;;3.60;99.90;;;;;;5085202;28;20045;-76
2022/01/05 03:47:05;;;;;;;5.20;0.53;;;3.70;99.90;;;;;;5075836;28;20554;-77
2022/01/05 03:49:32;;;;;;;4.93;1.03;;;3.60;99.90;;;;;;5073381;28;20044;-77
2022/01/05 03:51:58;;;;;;;0.43;0.30;;;3.50;99.90;;;;;;5073429;28;20052;-77
2022/01/05 03:54:25;;;;;;;1.40;0.10;;;3.60;99.90;;;;;;5072863;28;20078;-77
2022/01/05 03:56:51;;;;;;;0.30;0.20;;;3.40;99.90;;;;;;5073093;28;20452;-76
2022/01/05 03:59:18;;;;;;;0.50;0.30;;;3.30;99.90;;;;;;5073357;28;20045;-77
2022/01/05 04:01:45;;;;;;;3.40;0.40;;;3.20;99.90;;;;;;5073310;28;20040;-77
2022/01/05 04:04:12;;;;;;;0.30;0.30;;;3.20;99.90;;;;;;5074714;28;20045;-77
2022/01/05 04:06:39;;;;;;;8.07;1.00;;;3.10;99.90;;;;;;5074866;28;20052;-77
2022/01/05 04:09:06;;;;;;;1.70;0.40;;;3.00;99.90;;;;;;5073601;28;20045;-77
2022/01/05 04:11:32;;;;;;;2.73;0.90;;;3.00;99.90;;;;;;5073354;28;20071;-77
2022/01/05 04:13:59;;;;;;;4.40;0.60;;;3.00;99.90;;;;;;5073383;28;20098;-78
2022/01/05 04:16:26;;;;;;;2.40;0.30;;;3.00;99.90;;;;;;5074963;28;20098;-77
2022/01/05 04:18:52;;;;;;;4.67;0.57;;;3.00;99.90;;;;;;5073017;28;20566;-77
2022/01/05 04:21:20;;;;;;;1.57;1.10;;;2.90;99.90;;;;;;5073361;28;20048;-78
2022/01/05 04:23:47;;;;;;;3.40;0.60;;;2.90;99.90;;;;;;5073064;28;20040;-77
2022/01/05 04:26:13;;;;;;;1.07;0.40;;;2.90;99.90;;;;;;5072354;28;20045;-75
2022/01/05 04:28:40;;;;;;;3.50;0.50;;;2.90;99.90;;;;;;5073398;28;20052;-77
2022/01/05 04:31:07;;;;;;;2.70;1.60;;;2.90;99.90;;;;;;5072984;28;20051;-76
2022/01/05 04:33:34;;;;;;;4.90;0.50;;;2.90;99.90;;;;;;5072602;28;20044;-76
2022/01/05 04:36:00;;;;;;;5.43;1.57;;;2.90;99.90;;;;;;5074324;28;20056;-79
2022/01/05 04:38:28;;;;;;;1.20;0.50;;;2.90;99.90;;;;;;5076197;28;20048;-79
2022/01/05 04:40:55;;;;;;;6.37;0.73;;;2.90;99.90;;;;;;5076805;28;20044;-81
2022/01/05 04:43:24;;;;;;;0.87;0.30;;;2.80;99.90;;;;;;5081879;28;20382;-79
2022/01/05 04:45:51;;;;;;;1.90;0.33;;;2.80;99.90;;;;;;5082100;28;20057;-79
2022/01/05 04:48:18;;;;;;;1.70;0.43;;;2.80;99.90;;;;;;5082314;28;20470;-78
2022/01/05 04:50:46;;;;;;;1.13;0.30;;;2.80;99.90;;;;;;5081175;28;20049;-74
2022/01/05 04:53:13;;;;;;;0.30;0.30;;;2.80;99.90;;;;;;5072192;28;20097;-75
2022/01/05 04:55:42;;;;;;;4.40;0.87;;;2.80;99.90;;;;;;5071331;28;20059;-76
2022/01/05 04:58:11;;;;;;;0.53;0.43;;;2.80;99.90;;;;;;5071975;28;20084;-76
2022/01/05 05:00:38;;;;;;;2.27;0.37;;;2.80;99.90;;;;;;5073127;28;20048;-77
2022/01/05 05:03:05;;;;;;;0.10;0.10;;;2.70;99.90;;;;;;5072939;28;20066;-76
2022/01/05 05:05:31;;;;;;;12.93;1.00;;;2.70;99.90;;;;;;5071985;28;20044;-78
2022/01/05 05:07:58;;;;;;;1.70;0.50;;;2.70;99.90;;;;;;5077105;28;20048;-84
2022/01/05 05:10:25;;;;;;;0.53;0.53;;;2.80;99.90;;;;;;5081813;28;20533;-79
2022/01/05 05:12:53;;;;;;;0.63;0.60;;;2.80;99.90;;;;;;5075773;28;20044;-79
2022/01/05 05:15:20;;;;;;;2.23;0.60;;;2.80;99.90;;;;;;5074173;28;20098;-79
2022/01/05 05:17:47;;;;;;;0.20;0.20;;;2.70;99.90;;;;;;5078853;28;20074;-80
2022/01/05 05:20:14;;;;;;;0.40;0.40;;;2.70;99.90;;;;;;5073820;28;20098;-77
2022/01/05 05:22:41;;;;;;;0.83;0.30;;;2.70;99.90;;;;;;5072940;28;20044;-77
2022/01/05 05:25:11;;;;;;;1.17;0.50;;;2.60;99.90;;;;;;5073006;28;20044;-78
2022/01/05 05:27:38;;;;;;;1.03;0.30;;;2.60;99.90;;;;;;5080199;28;20452;-81
2022/01/05 05:30:07;;;;;;;2.83;1.13;;;2.70;99.90;;;;;;5073403;28;20041;-76
2022/01/05 05:32:35;;;;;;;4.70;0.60;;;2.70;99.90;;;;;;5074505;28;20040;-79
2022/01/05 05:35:02;;;;;;;0.20;0.20;;;2.60;99.90;;;;;;5074115;28;20056;-81
2022/01/05 05:37:28;;;;;;;0.73;0.20;;;2.60;99.90;;;;;;5075340;28;20041;-80
2022/01/05 05:39:55;;;;;;;7.13;1.33;;;2.60;99.90;;;;;;5074625;28;20493;-77
2022/01/05 05:42:22;;;;;;;3.90;0.57;;;2.60;99.90;;;;;;5073749;28;20085;-78
2022/01/05 05:44:48;;;;;;;3.83;1.63;;;2.60;99.90;;;;;;5071713;28;20053;-75
2022/01/05 05:47:16;;;;;;;8.07;1.57;;;2.60;99.90;;;;;;5071426;28;20546;-76
2022/01/05 05:49:44;;;;;;;0.87;0.50;;;2.60;99.90;;;;;;5071455;28;20040;-77
2022/01/05 05:52:11;;;;;;;1.37;1.37;;;2.50;99.90;;;;;;5071512;28;20049;-78
2022/01/05 05:54:37;;;;;;;0.40;0.40;;;2.50;99.90;;;;;;5074344;28;20535;-76
2022/01/05 05:57:06;;;;;;;0.30;0.23;;;2.60;99.90;;;;;;5074131;28;20049;-82
2022/01/05 05:59:34;;;;;;;1.63;0.93;;;2.60;99.90;;;;;;5072481;28;20044;-76
2022/01/05 06:02:01;;;;;;;0.83;0.80;;;2.60;99.90;;;;;;5071486;28;20056;-79
2022/01/05 06:04:30;;;;;;;4.43;1.03;;;2.50;99.90;;;;;;5071583;28;20448;-77
2022/01/05 06:06:58;;;;;;;1.13;0.47;;;2.50;99.90;;;;;;5072976;28;20040;-80
2022/01/05 06:09:24;;;;;;;1.50;0.40;;;2.50;99.90;;;;;;5074166;28;20115;-79
2022/01/05 06:11:51;;;;;;;3.20;0.27;;;2.60;99.90;;;;;;5073622;28;20462;-77
2022/01/05 06:14:18;;;;;;;2.60;1.03;;;2.60;99.90;;;;;;5072353;28;20057;-78
2022/01/05 06:16:44;;;;;;;2.37;1.07;;;2.50;99.90;;;;;;5072280;28;20446;-77
2022/01/05 06:19:11;;;;;;;3.83;0.90;;;2.50;99.90;;;;;;5072509;28;20052;-76
2022/01/05 06:21:39;;;;;;;3.00;0.57;;;2.50;99.90;;;;;;5072775;28;20044;-77
2022/01/05 06:24:06;;;;;;;2.40;0.73;;;2.40;99.90;;;;;;5073188;28;20458;-81
2022/01/05 06:26:32;;;;;;;2.53;0.50;;;2.40;99.90;;;;;;5076837;28;20090;-79
2022/01/05 06:28:59;;;;;;;0.30;0.20;;;2.40;99.90;;;;;;5081659;28;20098;-79
2022/01/05 06:31:26;;;;;;;2.80;0.40;;;2.40;99.90;;;;;;5079989;28;20458;-79
2022/01/05 06:33:53;;;;;;;3.73;0.70;;;2.30;99.90;;;;;;5077487;28;20094;-78
2022/01/05 06:36:19;;;;;;;5.63;0.43;;;2.30;99.90;;;;;;5078117;28;20417;-80
2022/01/05 06:38:47;;;;;;;1.90;1.43;;;2.40;99.90;;;;;;5078072;28;20357;-78
2022/01/05 06:41:14;;;;;;;0.47;0.47;;;2.40;99.90;;;;;;5075337;28;20424;-76
2022/01/05 06:43:40;;;;;;;4.50;0.83;;;2.40;99.90;;;;;;5075362;28;20428;-77
2022/01/05 06:46:07;;;;;;;4.93;0.83;;;2.40;99.90;;;;;;5074926;28;20040;-77
2022/01/05 06:48:34;;;;;;;4.40;1.03;;;2.40;99.90;;;;;;5084529;28;20051;-80
2022/01/05 06:51:00;;;;;;;7.00;1.03;;;2.40;99.90;;;;;;5083314;28;20056;-80
2022/01/05 06:53:28;;;;;;;0.87;0.30;;;2.40;99.90;;;;;;5080967;28;20045;-82
2022/01/05 06:55:56;;;;;;;1.27;0.80;;;2.40;99.90;;;;;;5076517;28;20415;-77
2022/01/05 06:58:22;;;;;;;4.37;1.43;;;2.30;99.90;;;;;;5075897;28;20079;-77
2022/01/05 07:00:49;;;;;;;1.07;0.30;;;2.30;99.90;;;;;;5075945;28;20048;-76
2022/01/05 07:03:16;;;;;;;1.47;0.57;;;2.20;99.90;;;;;;5077200;28;20489;-76
2022/01/05 07:05:42;;;;;;;0.43;0.40;;;2.20;99.90;;;;;;5076091;28;20033;-76
2022/01/05 07:08:09;;;;;;;1.60;1.27;;;2.10;99.90;;;;;;5075271;28;20052;-75
2022/01/05 07:10:36;;;;;;;3.03;1.10;;;2.10;99.90;;;;;;5075325;28;20102;-77
2022/01/05 07:13:04;;;;;;;1.33;1.27;;;2.10;99.90;;;;;;5074782;28;20566;-77
2022/01/05 07:15:30;;;;;;;9.93;0.80;;;2.10;99.90;;;;;;5074355;28;20045;-77
2022/01/05 07:17:57;;;;;;;5.00;0.83;;;2.10;99.90;;;;;;5079797;28;20052;-81
2022/01/05 07:20:24;;;;;;;1.27;1.17;;;2.10;99.90;;;;;;5086957;28;20051;-77
2022/01/05 07:22:50;;;;;;;1.27;0.50;;;2.10;99.90;;;;;;5078110;28;20044;-82
2022/01/05 07:25:17;;;;;;;0.50;0.50;;;2.10;99.90;;;;;;5077663;28;20048;-77
2022/01/05 07:27:44;;;;;;;3.80;1.10;;;2.10;99.90;;;;;;5073677;28;20186;-75
2022/01/05 07:30:13;;;;;;;0.60;0.60;;;2.20;99.90;;;;;;5073845;28;20041;-75
2022/01/05 07:32:40;;;;;;;1.47;0.77;;;2.10;99.90;;;;;;5074181;28;20049;-74
2022/01/05 07:35:10;;;;;;;0.50;0.50;;;2.10;99.90;;;;;;5073193;28;20075;-76
2022/01/05 07:37:36;;;;;;;6.33;1.50;;;2.20;99.90;;;;;;5073608;28;20439;-77
2022/01/05 07:40:04;;;;;;;6.07;0.63;;;2.20;99.90;;;;;;5072418;28;20083;-74
2022/01/05 07:42:33;;;;;;;2.27;1.77;;;2.20;99.90;;;;;;5073671;28;20067;-75
2022/01/05 07:45:00;;;;;;;1.20;1.13;;;2.20;99.90;;;;;;5072887;28;20110;-77
2022/01/05 07:47:28;;;;;;;2.33;1.87;;;2.30;99.90;;;;;;5076201;28;20045;-80
2022/01/05 07:49:55;;;;;;;6.47;1.53;;;2.30;99.90;;;;;;5075348;28;20052;-84
2022/01/05 07:52:21;;;;;;;2.87;1.33;;;2.30;99.90;;;;;;5075328;28;20629;-83
2022/01/05 07:54:49;;;;;;;5.63;1.00;;;2.40;99.90;;;;;;5083201;28;20070;-84
2022/01/05 07:57:16;;;;;;;3.93;0.90;;;2.40;99.90;;;;;;5078454;28;20727;-77
2022/01/05 07:59:42;;;;;;;3.53;1.30;;;2.50;99.90;;;;;;5073627;28;20049;-78
2022/01/05 08:02:09;;;;;;;1.90;1.43;;;2.50;99.90;;;;;;5077375;28;20070;-80
2022/01/05 08:04:37;;;;;;;5.13;1.93;;;2.60;99.90;;;;;;5080617;28;20074;-79
2022/01/05 08:07:04;;;;;;;1.27;0.50;;;2.60;99.90;;;;;;5078272;28;20106;-79
2022/01/05 08:09:30;;;;;;;2.63;1.43;;;2.60;99.90;;;;;;5076588;28;20040;-78
2022/01/05 08:11:57;;;;;;;4.03;1.07;;;2.60;99.90;;;;;;5073940;28;20049;-76
2022/01/05 08:14:24;;;;;;;3.93;1.50;;;2.60;99.90;;;;;;5072818;28;20182;-77
2022/01/05 08:16:51;;;;;;;5.30;1.27;;;2.60;99.90;;;;;;5075437;28;20067;-81
2022/01/05 08:19:18;;;;;;;4.03;1.00;;;2.60;99.90;;;;;;5079169;28;20186;-81
2022/01/05 08:21:46;;;;;;;7.87;1.73;;;2.70;99.90;;;;;;5075536;28;20041;-77
2022/01/05 08:24:13;;;;;;;1.70;1.60;;;2.80;99.90;;;;;;5073966;28;20048;-76
2022/01/05 08:26:39;;;;;;;5.53;2.73;;;2.70;99.90;;;;;;5073406;28;20041;-74
2022/01/05 08:29:06;;;;;;;4.23;1.43;;;2.80;99.90;;;;;;5074264;28;20044;-75
2022/01/05 08:31:38;;;;;;;2.63;1.13;;;2.80;99.90;;;;;;5080116;28;20048;-80
2022/01/05 08:34:04;;;;;;;2.00;0.65;;;2.90;99.90;;;;;;5077393;28;20044;-77
2022/01/05 08:36:31;;;;;;;1.40;1.17;;;2.90;99.90;;;;;;5076891;28;20044;-79
2022/01/05 08:38:59;;;;;;;1.03;0.90;;;3.00;99.90;;;;;;5076952;28;20074;-77
2022/01/05 08:41:26;;;;;;;2.30;1.30;;;3.00;99.90;;;;;;5076705;28;20044;-80
2022/01/05 08:43:54;;;;;;;3.93;1.03;;;3.00;99.90;;;;;;5097512;28;20063;-82
2022/01/05 08:46:21;;;;;;;0.77;0.67;;;3.10;99.90;;;;;;5097519;28;20025;-77
2022/01/05 08:48:48;;;;;;;3.20;1.17;;;3.10;99.90;;;;;;5081743;28;20052;-77
2022/01/05 08:51:14;;;;;;;3.83;0.97;;;3.10;99.90;;;;;;5078387;28;20041;-78
2022/01/05 08:53:41;;;;;;;3.77;1.70;;;3.10;99.90;;;;;;5077028;28;20190;-76
2022/01/05 08:56:09;;;;;;;1.60;1.17;;;3.10;99.90;;;;;;5083792;28;20057;-78
2022/01/05 08:58:36;;;;;;;1.10;1.00;;;3.10;99.90;;;;;;5085792;28;20048;-78
2022/01/05 09:01:03;;;;;;;2.80;1.00;;;3.10;99.90;;;;;;5078748;28;20053;-77
2022/01/05 09:03:29;;;;;;;1.83;0.90;;;3.10;99.90;;;;;;5076198;28;20045;-78
2022/01/05 09:05:56;;;;;;;3.33;2.50;;;3.10;99.90;;;;;;5072517;28;20489;-77
2022/01/05 09:08:23;;;;;;;1.77;1.67;;;3.10;99.90;;;;;;5072689;28;20098;-79
2022/01/05 09:10:49;;;;;;;4.47;1.37;;;3.20;99.90;;;;;;5072631;28;20093;-78
2022/01/05 09:13:17;;;;;;;1.97;1.27;;;3.30;99.90;;;;;;5073008;28;20097;-78
2022/01/05 09:15:44;;;;;;;5.60;2.00;;;3.50;99.90;;;;;;5071723;28;20060;-79
2022/01/05 09:18:11;;;;;;;3.37;2.57;;;3.70;99.90;;;;;;5072315;28;20044;-79
2022/01/05 09:20:37;;;;;;;1.67;0.80;;;4.20;99.90;;;;;;5072558;28;20106;-77
2022/01/05 09:23:04;;;;;;;1.30;1.00;;;4.50;99.90;;;;;;5072556;28;20147;-78
2022/01/05 09:25:31;;;;;;;2.37;1.10;;;4.50;99.90;;;;;;5071647;28;20041;-79
2022/01/05 09:27:57;;;;;;;2.63;1.07;;;5.10;99.90;;;;;;5072086;28;20105;-73
2022/01/05 09:30:27;;;;;;;11.00;1.83;;;5.90;99.90;;;;;;5071614;28;20056;-75
2022/01/05 09:32:53;;;;;;;3.03;1.30;;;6.20;99.90;;;;;;5071826;28;20080;-78
2022/01/05 09:35:22;;;;;;;3.83;1.93;;;6.70;99.90;;;;;;5071454;28;20047;-79
2022/01/05 09:37:54;;;;;;;3.10;0.80;;;6.80;99.90;;;;;;5071965;28;20051;-77
2022/01/05 09:43:06;;;;;;;4.70;1.73;;;7.20;99.90;;;;;;5074477;28;20059;-81
2022/01/05 09:45:36;;;;;;;1.37;0.80;;;7.10;99.90;;;;;;5074895;28;20052;-79
2022/01/05 09:48:27;;;;;;;2.93;1.57;;;6.40;99.90;;;;;;5073287;28;20056;-78
2022/01/05 09:50:59;;;;;;;4.80;1.63;;;6.40;99.90;;;;;;5073806;28;20045;-77
2022/01/05 09:53:26;;;;;;;;;;;5.80;99.90;;;;;;5073498;28;20045;-77
2022/01/05 09:55:53;;;;;;;1.27;1.00;;;5.30;99.90;;;;;;5074725;28;19964;-82
2022/01/05 09:58:22;;;;;;;5.20;1.73;;;5.20;99.90;;;;;;5075656;28;20105;-83
2022/01/05 10:00:51;;;;;;;4.47;1.13;;;4.90;99.90;;;;;;5075476;28;20489;-81
2022/01/05 10:03:20;;;;;;;4.03;1.50;;;4.50;99.90;;;;;;5077637;28;20049;-83
2022/01/05 10:05:46;;;;;;;9.73;2.30;;;4.40;99.90;;;;;;5080645;28;20048;-82
2022/01/05 10:08:13;;;;;;;1.90;1.47;;;4.60;99.90;;;;;;5083054;28;20554;-82
2022/01/05 10:10:42;;;;;;;3.03;1.40;;;4.80;99.90;;;;;;5079655;28;20102;-83
2022/01/05 10:13:09;;;;;;;17.87;4.30;;;5.90;99.90;;;;;;5079861;28;20087;-83
2022/01/05 10:15:36;;;;;;;4.10;1.43;;;6.00;99.90;;;;;;5080168;28;20048;-84
2022/01/05 10:18:12;;;;;;;3.93;1.80;;;5.80;99.90;;;;;;5080180;28;20053;-84
2022/01/05 10:20:53;;;;;;;6.10;1.37;;;5.50;99.90;;;;;;5080735;28;20497;-82
2022/01/05 10:23:33;;;;;;;3.05;1.50;;;5.30;99.90;;;;;;5079323;28;20052;-84
2022/01/05 10:26:23;;;;;;;3.53;1.60;;;4.90;99.90;;;;;;5078799;28;20112;-84
2022/01/05 10:28:50;;;;;;;3.17;1.43;;;5.00;99.90;;;;;;5078363;28;20574;-80
2022/01/05 10:31:19;;;;;;;3.90;2.10;;;5.00;99.90;;;;;;5079916;28;20047;-83
2022/01/05 10:33:47;;;;;;;1.97;1.00;;;4.90;99.90;;;;;;5077417;28;20064;-79
2022/01/05 10:36:14;;;;;;;4.00;1.23;;;4.90;99.90;;;;;;5077470;28;20109;-79
2022/01/05 10:38:52;;;;;;;2.83;1.90;;;5.10;99.90;;;;;;5076898;28;20044;-79
2022/01/05 10:41:20;;;;;;;5.63;1.73;;;5.10;99.90;;;;;;5077863;28;20098;-80
2022/01/05 10:44:10;;;;;;;5.97;1.43;;;4.80;99.90;;;;;;5078011;28;20050;-80
2022/01/05 10:46:38;;;;;;;2.67;1.40;;;4.70;99.90;;;;;;5078336;28;20090;-79
2022/01/05 10:49:06;;;;;;;6.90;1.07;;;4.70;99.90;;;;;;5078092;28;20404;-80
2022/01/05 10:51:35;;;;;;;2.53;0.93;;;4.80;99.90;;;;;;5078561;28;20094;-81
2022/01/05 10:54:12;;;;;;;4.67;2.60;;;4.70;99.90;;;;;;5077453;28;20045;-81
2022/01/05 10:56:39;;;;;;;1.93;0.97;;;4.90;99.90;;;;;;5077743;28;20456;-79
2022/01/05 10:59:06;;;;;;;2.33;0.83;;;4.80;99.90;;;;;;5078084;28;20098;-79
2022/01/05 11:01:33;;;;;;;2.20;1.40;;;4.70;99.90;;;;;;5079239;28;20551;-81
2022/01/05 11:04:14;;;;;;;1.90;1.00;;;4.80;99.90;;;;;;5078505;28;20055;-83
2022/01/05 11:06:54;;;;;;;3.03;1.13;;;4.70;99.90;;;;;;5080664;28;20052;-81
2022/01/05 11:09:21;;;;;;;3.40;1.70;;;4.70;99.90;;;;;;5085924;28;20655;-83
2022/01/05 11:11:49;;;;;;;1.97;0.73;;;4.70;99.90;;;;;;5082199;28;20049;-83
2022/01/05 11:14:18;;;;;;;1.73;1.27;;;4.90;99.90;;;;;;5083192;28;20372;-82
2022/01/05 11:16:46;;;;;;;1.03;0.93;;;5.00;99.90;;;;;;5085224;28;20102;-81
2022/01/05 11:19:18;;;;;;;4.97;1.60;;;5.20;99.90;;;;;;5084065;28;20459;-82
2022/01/05 11:22:04;;;;;;;2.95;1.55;;;5.10;99.90;;;;;;5081308;28;20049;-81
2022/01/05 11:24:33;;;;;;;5.00;1.27;;;5.30;99.90;;;;;;5077894;28;20048;-83
2022/01/05 11:27:01;;;;;;;7.67;1.50;;;6.10;99.90;;;;;;5077820;28;20044;-82
2022/01/05 11:29:28;;;;;;;3.50;1.97;;;7.70;99.90;;;;;;5077207;28;20045;-82
2022/01/05 11:31:56;;;;;;;3.60;1.67;;;8.60;99.90;;;;;;5076980;28;20098;-81
2022/01/05 11:34:23;;;;;;;0.67;0.67;;;7.10;99.90;;;;;;5081311;28;20113;-81
2022/01/05 11:36:50;;;;;;;6.07;2.00;;;7.10;99.90;;;;;;5095321;28;20048;-82
2022/01/05 11:39:19;;;;;;;1.87;1.30;;;6.20;99.90;;;;;;5080085;28;20048;-82
2022/01/05 11:41:48;;;;;;;9.90;1.50;;;5.70;99.90;;;;;;5079984;28;20048;-81
2022/01/05 11:44:16;;;;;;;2.47;1.37;;;5.50;99.90;;;;;;5080491;28;20052;-81
2022/01/05 11:46:45;;;;;;;2.93;1.30;;;5.20;99.90;;;;;;5082877;28;20049;-80
2022/01/05 11:49:14;;;;;;;4.63;0.87;;;5.80;99.90;;;;;;5083385;28;20048;-81
2022/01/05 11:51:49;;;;;;;4.53;2.10;;;5.90;99.90;;;;;;5087674;28;20074;-82
2022/01/05 11:54:21;;;;;;;6.40;1.40;;;7.80;99.90;;;;;;5098261;28;20032;-80
2022/01/05 11:56:49;;;;;;;2.03;0.95;;;8.80;99.90;;;;;;5098589;28;20071;-81
2022/01/05 11:59:33;;;;;;;2.93;1.67;;;9.70;99.70;;;;;;5098692;28;20066;-81
2022/01/05 12:02:06;;;;;;;2.67;1.17;;;8.70;99.30;;;;;;5098764;28;20043;-83
2022/01/05 12:05:01;;;;;;;2.95;1.35;;;8.80;99.80;;;;;;5098208;28;20036;-81
2022/01/05 12:07:36;;;;;;;2.63;1.20;;;8.80;99.00;;;;;;5074172;28;20052;-75
2022/01/05 12:10:11;;;;;;;5.30;2.23;;;8.00;99.80;;;;;;5079324;28;20079;-78
2022/01/05 12:12:52;;;;;;;3.43;1.50;;;6.80;99.90;;;;;;5082013;28;20127;-78
2022/01/05 12:15:43;;;;;;;4.27;1.17;;;5.90;99.90;;;;;;5076630;28;20093;-77
2022/01/05 12:18:11;;;;;;;2.13;1.50;;;5.70;99.90;;;;;;5077875;28;20052;-79
2022/01/05 12:20:41;;;;;;;4.33;2.23;;;5.50;99.90;;;;;;5080788;28;20125;-76
2022/01/05 12:23:19;;;;;;;3.77;1.60;;;5.30;99.90;;;;;;5075227;28;20070;-76
2022/01/05 12:26:16;;;;;;;2.73;1.40;;;5.20;99.90;;;;;;5071845;28;20052;-74
2022/01/05 12:28:52;;;;;;;4.73;1.00;;;5.10;99.90;;;;;;4991187;28;20061;-75
2022/01/05 12:31:19;;;;;;;2.70;1.23;;;5.10;99.90;;;;;;5060735;28;20455;-78
2022/01/05 12:33:49;;;;;;;2.17;1.40;;;5.10;99.90;;;;;;5075227;28;20131;-78
2022/01/05 12:36:33;;;;;;;9.27;3.90;;;5.10;99.90;;;;;;5074186;28;20101;-75
2022/01/05 12:39:00;;;;;;;2.50;1.43;;;5.10;99.90;;;;;;5072600;28;20048;-75
2022/01/05 12:41:32;;;;;;;1.30;1.20;;;5.10;99.90;;;;;;5072405;28;20448;-76
2022/01/05 12:44:02;;;;;;;3.30;1.27;;;4.90;99.90;;;;;;5072486;28;20523;-77
2022/01/05 12:46:38;;;;;;;2.27;1.00;;;4.80;99.90;;;;;;5072624;28;20040;-74
2022/01/05 12:49:10;;;;;;;1.70;0.80;;;4.80;99.90;;;;;;5072221;28;20048;-73
2022/01/05 12:51:42;;;;;;;;;;;4.80;99.90;;;;;;5073917;28;20485;-76
2022/01/05 12:54:11;;;;;;;2.25;1.73;;;4.60;99.90;;;;;;5078659;28;19920;-77
2022/01/05 12:56:42;;;;;;;0.97;0.97;;;4.70;99.90;;;;;;5075565;28;20044;-80
2022/01/05 12:59:10;;;;;;;4.13;2.33;;;4.60;99.90;;;;;;5054854;28;20141;-75
2022/01/05 13:01:37;;;;;;;3.87;1.83;;;4.70;99.90;;;;;;5072015;28;20044;-76
2022/01/05 13:04:09;;;;;;;9.63;2.00;;;4.60;99.90;;;;;;5074713;28;20416;-78
2022/01/05 13:06:37;;;;;;;6.23;2.00;;;4.60;99.90;;;;;;5072996;28;20139;-75